createdAt,value
2018-12-19T00:00:57.957Z,60.80
2018-12-19T00:01:57.946Z,63.70
2018-12-19T00:02:57.933Z,60.20
2018-12-19T00:03:57.925Z,62.10
2018-12-19T00:04:57.925Z,62.00
2018-12-19T00:05:57.900Z,59.00
2018-12-19T00:06:57.891Z,60.70
2018-12-19T00:07:57.884Z,64.60
2018-12-19T00:09:03.164Z,58.50
2018-12-19T00:09:57.858Z,58.80
2018-12-19T00:10:57.861Z,63.30
2018-12-19T00:11:57.838Z,59.00
2018-12-19T00:12:57.826Z,57.10
2018-12-19T00:13:57.815Z,55.90
2018-12-19T00:14:57.805Z,57.80
2018-12-19T00:15:57.797Z,60.20
2018-12-19T00:16:57.786Z,58.20
2018-12-19T00:17:57.773Z,54.20
2018-12-19T00:18:57.761Z,57.10
2018-12-19T00:19:57.751Z,57.50
2018-12-19T00:20:57.741Z,54.00
2018-12-19T00:21:57.728Z,56.00
2018-12-19T00:22:57.718Z,55.10
2018-12-19T00:23:57.707Z,55.00
2018-12-19T00:24:57.697Z,57.50
2018-12-19T00:25:57.686Z,54.30
2018-12-19T00:26:57.675Z,51.50
2018-12-19T00:27:58.333Z,53.00
2018-12-19T00:28:57.655Z,54.50
2018-12-19T00:29:57.641Z,51.60
2018-12-19T00:30:57.631Z,52.60
2018-12-19T00:31:57.621Z,52.20
2018-12-19T00:32:57.615Z,51.60
2018-12-19T00:33:57.599Z,54.80
2018-12-19T00:34:57.588Z,54.50
2018-12-19T00:35:57.577Z,53.20
2018-12-19T00:36:57.565Z,57.60
2018-12-19T00:37:57.555Z,53.10
2018-12-19T00:38:57.540Z,52.50
2018-12-19T00:39:57.550Z,50.70
2018-12-19T00:40:57.522Z,52.70
2018-12-19T00:41:57.508Z,50.40
2018-12-19T00:42:57.500Z,54.80
2018-12-19T00:43:57.490Z,47.00
2018-12-19T00:44:57.479Z,50.00
2018-12-19T00:45:57.468Z,50.60
2018-12-19T00:46:57.456Z,48.70
2018-12-19T00:47:57.446Z,51.30
2018-12-19T00:48:57.429Z,50.90
2018-12-19T00:49:57.423Z,47.90
2018-12-19T00:50:58.338Z,49.70
2018-12-19T00:51:57.401Z,46.90
2018-12-19T00:52:57.390Z,49.30
2018-12-19T00:53:57.386Z,49.10
2018-12-19T00:54:57.368Z,51.00
2018-12-19T00:55:57.359Z,46.30
2018-12-19T00:56:57.345Z,44.40
2018-12-19T00:57:57.336Z,44.80
2018-12-19T00:58:57.326Z,45.20
2018-12-19T00:59:57.316Z,48.80
2018-12-19T01:00:57.303Z,43.90
2018-12-19T01:01:57.292Z,45.70
2018-12-19T01:02:57.282Z,47.60
2018-12-19T01:03:57.271Z,45.80
2018-12-19T01:04:57.260Z,44.40
2018-12-19T01:05:57.249Z,45.70
2018-12-19T01:06:57.241Z,45.40
2018-12-19T01:07:57.228Z,44.50
2018-12-19T01:08:57.215Z,45.80
2018-12-19T01:09:57.205Z,45.50
2018-12-19T01:10:57.195Z,45.30
2018-12-19T01:11:57.182Z,46.50
2018-12-19T01:12:57.173Z,47.50
2018-12-19T01:13:57.161Z,47.70
2018-12-19T01:14:57.150Z,50.00
2018-12-19T01:15:57.140Z,48.60
2018-12-19T01:16:57.131Z,48.30
2018-12-19T01:17:57.119Z,48.70
2018-12-19T01:18:57.107Z,45.70
2018-12-19T01:19:57.097Z,44.10
2018-12-19T01:20:57.084Z,44.30
2018-12-19T01:21:57.074Z,45.10
2018-12-19T01:22:57.063Z,44.40
2018-12-19T01:23:57.052Z,44.50
2018-12-19T01:24:57.042Z,43.30
2018-12-19T01:25:57.030Z,45.50
2018-12-19T01:26:57.019Z,44.90
2018-12-19T01:27:57.009Z,48.00
2018-12-19T01:28:56.998Z,46.40
2018-12-19T01:29:56.985Z,45.10
2018-12-19T01:30:56.976Z,44.30
2018-12-19T01:31:56.965Z,46.80
2018-12-19T01:32:56.955Z,46.00
2018-12-19T01:33:56.942Z,44.50
2018-12-19T01:34:56.931Z,44.40
2018-12-19T01:35:56.921Z,42.10
2018-12-19T01:36:56.910Z,44.00
2018-12-19T01:37:56.900Z,46.20
2018-12-19T01:38:56.889Z,44.50
2018-12-19T01:39:56.876Z,43.50
2018-12-19T01:40:56.866Z,43.80
2018-12-19T01:41:56.855Z,43.20
2018-12-19T01:42:56.839Z,43.60
2018-12-19T01:43:56.833Z,46.10
2018-12-19T01:44:56.823Z,44.60
2018-12-19T01:45:56.811Z,46.30
2018-12-19T01:46:56.802Z,48.30
2018-12-19T01:47:56.790Z,43.90
2018-12-19T01:48:56.777Z,47.00
2018-12-19T01:49:56.763Z,48.00
2018-12-19T01:50:56.754Z,47.70
2018-12-19T01:51:56.743Z,48.00
2018-12-19T01:52:56.732Z,47.60
2018-12-19T01:53:56.721Z,45.60
2018-12-19T01:54:56.708Z,47.30
2018-12-19T01:55:56.699Z,45.70
2018-12-19T01:56:56.690Z,45.90
2018-12-19T01:57:56.675Z,46.30
2018-12-19T01:58:56.667Z,48.80
2018-12-19T01:59:56.655Z,44.90
2018-12-19T02:00:56.642Z,43.70
2018-12-19T02:01:56.632Z,45.90
2018-12-19T02:02:56.620Z,47.10
2018-12-19T02:03:56.610Z,45.60
2018-12-19T02:04:56.599Z,47.10
2018-12-19T02:05:56.587Z,46.30
2018-12-19T02:06:56.577Z,48.90
2018-12-19T02:07:56.566Z,45.80
2018-12-19T02:08:56.555Z,45.70
2018-12-19T02:09:56.543Z,47.80
2018-12-19T02:10:56.533Z,45.70
2018-12-19T02:11:56.521Z,48.60
2018-12-19T02:12:56.511Z,46.50
2018-12-19T02:13:56.499Z,48.70
2018-12-19T02:14:56.488Z,46.50
2018-12-19T02:15:56.479Z,46.40
2018-12-19T02:16:56.467Z,48.80
2018-12-19T02:17:56.455Z,47.00
2018-12-19T02:18:56.446Z,46.30
2018-12-19T02:19:56.433Z,47.60
2018-12-19T02:20:56.422Z,48.50
2018-12-19T02:21:56.410Z,44.60
2018-12-19T02:22:56.400Z,47.10
2018-12-19T02:23:56.389Z,47.50
2018-12-19T02:24:56.379Z,46.30
2018-12-19T02:25:56.365Z,45.60
2018-12-19T02:26:56.357Z,47.10
2018-12-19T02:27:56.347Z,45.90
2018-12-19T02:28:56.333Z,46.80
2018-12-19T02:29:56.322Z,45.10
2018-12-19T02:30:56.310Z,44.90
2018-12-19T02:31:56.298Z,47.50
2018-12-19T02:32:56.289Z,46.20
2018-12-19T02:33:56.276Z,45.30
2018-12-19T02:34:56.267Z,45.60
2018-12-19T02:35:56.255Z,47.70
2018-12-19T02:36:56.245Z,46.70
2018-12-19T02:37:56.236Z,46.80
2018-12-19T02:38:56.222Z,49.10
2018-12-19T02:39:56.214Z,48.80
2018-12-19T02:40:56.198Z,48.30
2018-12-19T02:41:56.187Z,48.80
2018-12-19T02:42:56.178Z,48.90
2018-12-19T02:43:56.165Z,45.80
2018-12-19T02:44:56.164Z,49.10
2018-12-19T02:45:56.148Z,49.80
2018-12-19T02:46:56.133Z,49.50
2018-12-19T02:47:56.123Z,50.70
2018-12-19T02:48:56.111Z,47.10
2018-12-19T02:49:56.097Z,48.90
2018-12-19T02:50:56.116Z,49.40
2018-12-19T02:51:56.077Z,50.70
2018-12-19T02:52:56.071Z,49.00
2018-12-19T02:53:56.054Z,51.70
2018-12-19T02:54:56.044Z,51.10
2018-12-19T02:55:56.035Z,53.90
2018-12-19T02:56:56.031Z,50.00
2018-12-19T02:57:56.010Z,52.40
2018-12-19T02:58:55.999Z,51.20
2018-12-19T02:59:55.985Z,51.10
2018-12-19T03:00:55.978Z,49.60
2018-12-19T03:01:55.971Z,50.60
2018-12-19T03:02:55.955Z,49.90
2018-12-19T03:03:55.942Z,49.00
2018-12-19T03:04:55.937Z,51.00
2018-12-19T03:05:55.920Z,51.60
2018-12-19T03:06:55.910Z,48.40
2018-12-19T03:07:55.897Z,52.40
2018-12-19T03:08:55.889Z,51.60
2018-12-19T03:09:55.876Z,55.50
2018-12-19T03:10:55.866Z,50.20
2018-12-19T03:11:55.854Z,48.80
2018-12-19T03:12:55.851Z,49.00
2018-12-19T03:13:55.834Z,48.10
2018-12-19T03:14:55.821Z,51.10
2018-12-19T03:15:55.812Z,51.60
2018-12-19T03:16:55.799Z,50.70
2018-12-19T03:17:55.787Z,51.10
2018-12-19T03:18:55.777Z,53.10
2018-12-19T03:19:55.765Z,53.60
2018-12-19T03:20:55.755Z,53.00
2018-12-19T03:21:55.741Z,56.00
2018-12-19T03:22:55.735Z,49.70
2018-12-19T03:23:55.720Z,52.20
2018-12-19T03:24:55.715Z,52.00
2018-12-19T03:25:55.697Z,53.30
2018-12-19T03:26:55.698Z,50.60
2018-12-19T03:27:55.678Z,52.70
2018-12-19T03:28:55.666Z,53.40
2018-12-19T03:29:55.652Z,50.10
2018-12-19T03:30:55.641Z,49.90
2018-12-19T03:31:55.631Z,51.50
2018-12-19T03:32:55.621Z,52.70
2018-12-19T03:33:55.609Z,50.40
2018-12-19T03:34:55.595Z,50.90
2018-12-19T03:35:55.587Z,52.70
2018-12-19T03:36:55.576Z,52.80
2018-12-19T03:37:55.562Z,53.10
2018-12-19T03:38:55.551Z,51.50
2018-12-19T03:39:55.546Z,49.60
2018-12-19T03:40:55.531Z,49.10
2018-12-19T03:41:55.518Z,51.10
2018-12-19T03:42:55.511Z,53.70
2018-12-19T03:43:55.495Z,50.90
2018-12-19T03:44:55.484Z,49.50
2018-12-19T03:45:55.470Z,47.70
2018-12-19T03:46:55.462Z,51.10
2018-12-19T03:47:55.450Z,50.20
2018-12-19T03:48:55.443Z,49.50
2018-12-19T03:49:55.426Z,52.60
2018-12-19T03:50:55.418Z,51.30
2018-12-19T03:51:55.410Z,50.20
2018-12-19T03:52:55.394Z,51.30
2018-12-19T03:53:55.382Z,48.30
2018-12-19T03:54:55.375Z,50.40
2018-12-19T03:55:55.361Z,53.10
2018-12-19T03:56:55.350Z,51.30
2018-12-19T03:57:55.342Z,49.80
2018-12-19T03:58:55.328Z,51.10
2018-12-19T03:59:55.320Z,49.60
2018-12-19T04:00:55.307Z,48.70
2018-12-19T04:01:55.294Z,46.10
2018-12-19T04:02:55.281Z,50.00
2018-12-19T04:03:55.277Z,49.70
2018-12-19T04:04:55.262Z,47.70
2018-12-19T04:05:55.249Z,47.30
2018-12-19T04:06:55.246Z,46.30
2018-12-19T04:07:55.229Z,46.80
2018-12-19T04:08:55.216Z,50.50
2018-12-19T04:09:58.056Z,46.00
2018-12-19T04:10:55.195Z,46.60
2018-12-19T04:11:55.180Z,44.60
2018-12-19T04:12:55.172Z,44.60
2018-12-19T04:13:55.160Z,44.20
2018-12-19T04:14:55.148Z,46.90
2018-12-19T04:15:55.138Z,43.40
2018-12-19T04:16:55.127Z,48.00
2018-12-19T04:17:55.114Z,44.20
2018-12-19T04:18:55.104Z,46.40
2018-12-19T04:19:55.090Z,43.60
2018-12-19T04:20:55.083Z,43.20
2018-12-19T04:21:55.071Z,43.40
2018-12-19T04:22:55.061Z,43.30
2018-12-19T04:23:55.050Z,42.70
2018-12-19T04:24:55.037Z,42.70
2018-12-19T04:25:55.024Z,44.30
2018-12-19T04:26:55.014Z,44.00
2018-12-19T04:27:55.001Z,44.90
2018-12-19T04:28:54.991Z,42.60
2018-12-19T04:29:54.979Z,44.10
2018-12-19T04:30:54.968Z,39.80
2018-12-19T04:31:54.954Z,43.40
2018-12-19T04:32:54.951Z,39.80
2018-12-19T04:33:54.934Z,40.10
2018-12-19T04:34:54.923Z,40.00
2018-12-19T04:35:54.911Z,37.70
2018-12-19T04:36:54.901Z,40.30
2018-12-19T04:37:54.888Z,39.40
2018-12-19T04:38:54.873Z,39.50
2018-12-19T04:39:54.869Z,39.20
2018-12-19T04:40:54.854Z,41.10
2018-12-19T04:41:54.843Z,41.10
2018-12-19T04:42:54.836Z,40.30
2018-12-19T04:43:54.821Z,38.10
2018-12-19T04:44:54.818Z,40.50
2018-12-19T04:45:54.802Z,38.90
2018-12-19T04:46:54.788Z,38.20
2018-12-19T04:47:54.774Z,38.80
2018-12-19T04:48:54.765Z,38.40
2018-12-19T04:49:54.750Z,38.60
2018-12-19T04:50:54.742Z,38.60
2018-12-19T04:51:54.731Z,41.40
2018-12-19T04:52:54.719Z,41.70
2018-12-19T04:53:54.708Z,42.00
2018-12-19T04:54:54.694Z,37.80
2018-12-19T04:55:54.683Z,37.90
2018-12-19T04:56:54.674Z,39.20
2018-12-19T04:57:54.663Z,39.10
2018-12-19T04:58:54.651Z,38.10
2018-12-19T04:59:54.640Z,36.00
2018-12-19T05:00:54.629Z,36.70
2018-12-19T05:01:54.621Z,36.00
2018-12-19T05:02:54.606Z,36.20
2018-12-19T05:03:54.594Z,36.80
2018-12-19T05:04:54.586Z,34.60
2018-12-19T05:05:54.569Z,36.20
2018-12-19T05:06:54.560Z,35.60
2018-12-19T05:07:54.547Z,34.70
2018-12-19T05:08:54.537Z,34.00
2018-12-19T05:09:54.529Z,36.20
2018-12-19T05:10:54.515Z,32.60
2018-12-19T05:11:54.504Z,34.50
2018-12-19T05:12:54.511Z,36.80
2018-12-19T05:13:54.479Z,32.70
2018-12-19T05:14:54.466Z,35.30
2018-12-19T05:15:54.459Z,33.40
2018-12-19T05:16:54.447Z,31.70
2018-12-19T05:17:54.433Z,32.30
2018-12-19T05:18:54.421Z,32.40
2018-12-19T05:19:54.414Z,31.00
2018-12-19T05:20:54.405Z,31.60
2018-12-19T05:21:54.391Z,31.70
2018-12-19T05:22:54.377Z,32.90
2018-12-19T05:23:54.375Z,32.20
2018-12-19T05:24:54.357Z,31.50
2018-12-19T05:25:54.345Z,31.10
2018-12-19T05:26:54.332Z,33.50
2018-12-19T05:27:54.322Z,30.60
2018-12-19T05:28:54.310Z,29.60
2018-12-19T05:29:54.300Z,31.30
2018-12-19T05:30:54.287Z,32.00
2018-12-19T05:31:54.278Z,29.10
2018-12-19T05:32:54.265Z,32.00
2018-12-19T05:33:54.255Z,29.60
2018-12-19T05:34:54.243Z,31.50
2018-12-19T05:35:54.232Z,30.90
2018-12-19T05:36:54.221Z,32.50
2018-12-19T05:37:54.210Z,30.50
2018-12-19T05:38:54.198Z,30.10
2018-12-19T05:39:54.187Z,30.40
2018-12-19T05:40:54.177Z,30.30
2018-12-19T05:41:54.164Z,30.30
2018-12-19T05:42:54.156Z,30.80
2018-12-19T05:43:54.141Z,31.10
2018-12-19T05:44:54.132Z,30.70
2018-12-19T05:45:54.118Z,30.10
2018-12-19T05:46:54.107Z,31.40
2018-12-19T05:47:54.103Z,31.80
2018-12-19T05:48:54.086Z,31.70
2018-12-19T05:49:54.075Z,30.60
2018-12-19T05:50:54.063Z,31.80
2018-12-19T05:51:54.053Z,31.30
2018-12-19T05:52:54.041Z,34.90
2018-12-19T05:53:54.030Z,31.90
2018-12-19T05:54:54.019Z,32.80
2018-12-19T05:55:54.007Z,32.70
2018-12-19T05:56:53.999Z,32.00
2018-12-19T05:57:53.986Z,32.10
2018-12-19T05:58:53.975Z,32.00
2018-12-19T05:59:53.964Z,31.60
2018-12-19T06:00:53.953Z,33.50
2018-12-19T06:01:53.941Z,31.70
2018-12-19T06:02:53.926Z,31.60
2018-12-19T06:03:53.919Z,29.80
2018-12-19T06:04:53.909Z,30.90
2018-12-19T06:05:53.894Z,29.70
2018-12-19T06:06:53.885Z,30.60
2018-12-19T06:07:53.873Z,27.30
2018-12-19T06:08:53.862Z,29.40
2018-12-19T06:09:53.849Z,28.00
2018-12-19T06:10:53.840Z,28.30
2018-12-19T06:11:53.840Z,27.50
2018-12-19T06:12:53.821Z,27.80
2018-12-19T06:13:53.806Z,27.70
2018-12-19T06:14:53.795Z,27.20
2018-12-19T06:15:53.786Z,27.10
2018-12-19T06:16:53.775Z,27.10
2018-12-19T06:17:53.761Z,29.50
2018-12-19T06:18:53.751Z,27.50
2018-12-19T06:19:53.741Z,27.70
2018-12-19T06:20:53.728Z,28.10
2018-12-19T06:21:53.718Z,27.10
2018-12-19T06:22:53.708Z,25.40
2018-12-19T06:23:53.695Z,26.00
2018-12-19T06:24:53.686Z,26.70
2018-12-19T06:25:53.674Z,26.50
2018-12-19T06:26:53.662Z,27.40
2018-12-19T06:27:53.651Z,27.40
2018-12-19T06:28:53.642Z,26.70
2018-12-19T06:29:53.630Z,26.90
2018-12-19T06:30:53.618Z,26.00
2018-12-19T06:31:53.605Z,26.40
2018-12-19T06:32:53.597Z,25.80
2018-12-19T06:33:53.585Z,25.50
2018-12-19T06:34:53.573Z,25.40
2018-12-19T06:35:53.565Z,26.00
2018-12-19T06:36:53.556Z,24.70
2018-12-19T06:37:53.540Z,26.60
2018-12-19T06:38:53.533Z,27.20
2018-12-19T06:39:53.516Z,24.80
2018-12-19T06:40:53.511Z,24.60
2018-12-19T06:41:53.498Z,25.50
2018-12-19T06:42:53.485Z,26.60
2018-12-19T06:43:53.475Z,24.80
2018-12-19T06:44:53.461Z,24.60
2018-12-19T06:45:53.455Z,25.70
2018-12-19T06:46:53.441Z,26.00
2018-12-19T06:47:53.434Z,25.80
2018-12-19T06:48:53.420Z,26.00
2018-12-19T06:49:53.408Z,25.90
2018-12-19T06:50:53.398Z,26.90
2018-12-19T06:51:53.386Z,25.10
2018-12-19T06:52:53.377Z,25.20
2018-12-19T06:53:53.364Z,26.70
2018-12-19T06:54:53.359Z,25.10
2018-12-19T06:55:53.343Z,25.40
2018-12-19T06:56:53.339Z,25.10
2018-12-19T06:57:53.330Z,26.00
2018-12-19T06:58:53.313Z,25.40
2018-12-19T06:59:53.299Z,26.00
2018-12-19T07:00:53.286Z,25.90
2018-12-19T07:01:53.276Z,25.00
2018-12-19T07:02:53.265Z,25.40
2018-12-19T07:03:53.254Z,25.10
2018-12-19T07:04:53.244Z,25.20
2018-12-19T07:05:53.232Z,24.50
2018-12-19T07:06:53.222Z,25.30
2018-12-19T07:07:53.212Z,25.30
2018-12-19T07:08:53.200Z,24.80
2018-12-19T07:09:53.188Z,25.60
2018-12-19T07:10:53.178Z,25.20
2018-12-19T07:11:53.167Z,25.90
2018-12-19T07:12:53.157Z,24.50
2018-12-19T07:13:53.144Z,24.30
2018-12-19T07:14:53.135Z,24.30
2018-12-19T07:15:53.122Z,25.20
2018-12-19T07:16:53.112Z,25.30
2018-12-19T07:17:53.101Z,24.90
2018-12-19T07:18:53.089Z,25.80
2018-12-19T07:19:53.081Z,24.90
2018-12-19T07:20:53.266Z,25.30
2018-12-19T07:21:53.057Z,25.10
2018-12-19T07:22:53.046Z,24.50
2018-12-19T07:23:53.037Z,25.20
2018-12-19T07:24:53.027Z,25.70
2018-12-19T07:25:53.013Z,26.40
2018-12-19T07:26:53.002Z,26.40
2018-12-19T07:27:52.992Z,25.40
2018-12-19T07:28:52.980Z,26.10
2018-12-19T07:29:52.968Z,25.80
2018-12-19T07:30:52.961Z,26.20
2018-12-19T07:31:52.944Z,26.30
2018-12-19T07:32:52.936Z,25.50
2018-12-19T07:33:52.926Z,25.00
2018-12-19T07:34:52.915Z,24.20
2018-12-19T07:35:52.905Z,25.00
2018-12-19T07:36:52.894Z,25.00
2018-12-19T07:37:52.879Z,25.80
2018-12-19T07:38:52.870Z,25.60
2018-12-19T07:39:52.864Z,25.70
2018-12-19T07:40:52.850Z,25.70
2018-12-19T07:41:52.839Z,25.80
2018-12-19T07:42:52.835Z,25.90
2018-12-19T07:43:52.822Z,26.30
2018-12-19T07:44:52.806Z,25.90
2018-12-19T07:45:52.795Z,26.40
2018-12-19T07:46:52.785Z,26.10
2018-12-19T07:47:52.776Z,24.80
2018-12-19T07:48:52.762Z,25.10
2018-12-19T07:49:52.763Z,25.50
2018-12-19T07:50:52.739Z,26.60
2018-12-19T07:51:52.729Z,25.40
2018-12-19T07:52:52.780Z,26.70
2018-12-19T07:53:52.706Z,26.30
2018-12-19T07:54:52.695Z,25.90
2018-12-19T07:55:52.686Z,27.20
2018-12-19T07:56:52.673Z,24.90
2018-12-19T07:57:52.663Z,24.90
2018-12-19T07:58:52.654Z,25.70
2018-12-19T07:59:52.640Z,25.70
2018-12-19T08:00:52.632Z,26.00
2018-12-19T08:01:52.621Z,25.20
2018-12-19T08:02:52.609Z,24.50
2018-12-19T08:03:52.599Z,25.50
2018-12-19T08:04:52.591Z,25.40
2018-12-19T08:05:52.576Z,24.30
2018-12-19T08:06:52.579Z,24.70
2018-12-19T08:07:52.556Z,23.90
2018-12-19T08:08:52.547Z,24.70
2018-12-19T08:09:52.532Z,24.50
2018-12-19T08:10:52.528Z,24.60
2018-12-19T08:11:52.512Z,23.80
2018-12-19T08:12:52.502Z,23.80
2018-12-19T08:13:52.490Z,23.30
2018-12-19T08:14:52.477Z,23.60
2018-12-19T08:15:52.468Z,23.00
2018-12-19T08:16:52.457Z,23.30
2018-12-19T08:17:52.447Z,23.50
2018-12-19T08:18:52.436Z,23.20
2018-12-19T08:19:52.422Z,23.10
2018-12-19T08:20:52.416Z,23.50
2018-12-19T08:21:52.406Z,23.60
2018-12-19T08:22:52.392Z,23.50
2018-12-19T08:23:52.382Z,23.70
2018-12-19T08:24:52.374Z,23.00
2018-12-19T08:25:52.360Z,23.40
2018-12-19T08:26:52.350Z,23.00
2018-12-19T08:27:52.339Z,22.20
2018-12-19T08:28:52.330Z,23.00
2018-12-19T08:29:52.320Z,22.20
2018-12-19T08:30:52.310Z,22.70
2018-12-19T08:31:52.296Z,22.70
2018-12-19T08:32:52.286Z,22.50
2018-12-19T08:33:52.277Z,22.90
2018-12-19T08:34:52.268Z,23.10
2018-12-19T08:35:52.252Z,23.30
2018-12-19T08:36:52.247Z,23.90
2018-12-19T08:37:52.230Z,22.70
2018-12-19T08:38:52.223Z,22.70
2018-12-19T08:39:52.218Z,23.60
2018-12-19T08:40:58.608Z,23.10
2018-12-19T08:41:52.188Z,22.80
2018-12-19T08:42:52.178Z,22.10
2018-12-19T08:43:52.169Z,22.00
2018-12-19T08:44:52.155Z,22.40
2018-12-19T08:45:52.147Z,22.10
2018-12-19T08:46:52.138Z,21.80
2018-12-19T08:47:52.124Z,21.90
2018-12-19T08:48:52.115Z,22.10
2018-12-19T08:49:52.102Z,21.90
2018-12-19T08:50:52.095Z,22.40
2018-12-19T08:51:52.081Z,23.00
2018-12-19T08:52:52.072Z,22.80
2018-12-19T08:53:52.060Z,23.40
2018-12-19T08:54:52.050Z,22.10
2018-12-19T08:55:52.038Z,22.50
2018-12-19T08:56:52.029Z,21.80
2018-12-19T08:57:52.017Z,22.70
2018-12-19T08:58:52.008Z,22.40
2018-12-19T08:59:51.997Z,22.90
2018-12-19T09:00:51.987Z,22.60
2018-12-19T09:01:51.974Z,23.20
2018-12-19T09:02:51.966Z,23.00
2018-12-19T09:03:51.953Z,23.10
2018-12-19T09:04:51.943Z,23.50
2018-12-19T09:05:51.932Z,22.80
2018-12-19T09:06:51.922Z,23.00
2018-12-19T09:07:51.912Z,23.20
2018-12-19T09:08:51.928Z,22.70
2018-12-19T09:09:51.891Z,22.10
2018-12-19T09:10:51.880Z,22.50
2018-12-19T09:11:51.874Z,22.40
2018-12-19T09:12:51.865Z,22.60
2018-12-19T09:13:51.847Z,23.50
2018-12-19T09:14:51.841Z,23.20
2018-12-19T09:15:51.824Z,24.00
2018-12-19T09:16:51.816Z,23.50
2018-12-19T09:17:51.808Z,23.50
2018-12-19T09:18:51.797Z,23.20
2018-12-19T09:19:51.786Z,22.90
2018-12-19T09:20:51.777Z,23.20
2018-12-19T09:21:51.763Z,23.40
2018-12-19T09:22:51.765Z,23.20
2018-12-19T09:23:51.744Z,23.10
2018-12-19T09:24:51.732Z,22.90
2018-12-19T09:25:52.943Z,22.40
2018-12-19T09:26:51.709Z,22.10
2018-12-19T09:27:51.700Z,22.70
2018-12-19T09:28:51.690Z,22.80
2018-12-19T09:29:51.678Z,22.40
2018-12-19T09:30:51.668Z,21.80
2018-12-19T09:31:51.658Z,22.80
2018-12-19T09:32:52.664Z,22.30
2018-12-19T09:33:51.636Z,21.80
2018-12-19T09:34:51.629Z,21.50
2018-12-19T09:35:51.616Z,22.20
2018-12-19T09:36:51.640Z,22.20
2018-12-19T09:37:51.596Z,21.20
2018-12-19T09:38:51.581Z,21.30
2018-12-19T09:39:51.574Z,21.40
2018-12-19T09:40:51.566Z,21.40
2018-12-19T09:41:51.556Z,21.50
2018-12-19T09:42:51.543Z,21.30
2018-12-19T09:43:51.534Z,22.30
2018-12-19T09:44:51.522Z,22.00
2018-12-19T09:45:51.514Z,22.60
2018-12-19T09:46:51.501Z,21.70
2018-12-19T09:47:51.490Z,22.10
2018-12-19T09:48:51.549Z,21.30
2018-12-19T09:49:51.470Z,22.20
2018-12-19T09:50:51.462Z,22.40
2018-12-19T09:51:51.449Z,22.60
2018-12-19T09:52:51.441Z,21.50
2018-12-19T09:53:51.429Z,23.20
2018-12-19T09:54:51.421Z,22.20
2018-12-19T09:55:51.406Z,22.80
2018-12-19T09:56:51.399Z,23.30
2018-12-19T09:57:51.388Z,23.30
2018-12-19T09:58:51.376Z,23.00
2018-12-19T09:59:51.365Z,22.40
2018-12-19T10:00:51.362Z,23.00
2018-12-19T10:01:51.346Z,23.10
2018-12-19T10:02:51.337Z,22.90
2018-12-19T10:03:51.325Z,22.70
2018-12-19T10:04:51.315Z,23.00
2018-12-19T10:05:51.304Z,23.30
2018-12-19T10:06:51.293Z,22.20
2018-12-19T10:07:51.283Z,22.50
2018-12-19T10:08:51.273Z,22.40
2018-12-19T10:09:51.264Z,22.50
2018-12-19T10:10:51.252Z,21.90
2018-12-19T10:11:51.243Z,21.80
2018-12-19T10:12:51.229Z,22.50
2018-12-19T10:13:51.225Z,21.30
2018-12-19T10:14:51.212Z,21.50
2018-12-19T10:15:51.202Z,21.90
2018-12-19T10:16:51.191Z,22.10
2018-12-19T10:17:51.183Z,23.00
2018-12-19T10:18:51.171Z,22.40
2018-12-19T10:19:51.160Z,21.20
2018-12-19T10:20:51.151Z,21.10
2018-12-19T10:21:51.140Z,21.30
2018-12-19T10:22:51.129Z,20.40
2018-12-19T10:23:51.120Z,21.50
2018-12-19T10:24:51.111Z,20.60
2018-12-19T10:25:51.104Z,20.40
2018-12-19T10:26:51.092Z,20.20
2018-12-19T10:27:51.080Z,20.40
2018-12-19T10:28:51.852Z,19.20
2018-12-19T10:29:51.058Z,19.00
2018-12-19T10:30:51.050Z,19.00
2018-12-19T10:31:51.038Z,20.90
2018-12-19T10:32:51.029Z,19.70
2018-12-19T10:33:51.018Z,19.60
2018-12-19T10:34:51.010Z,18.00
2018-12-19T10:35:51.000Z,18.80
2018-12-19T10:36:50.990Z,19.50
2018-12-19T10:37:50.979Z,19.40
2018-12-19T10:38:50.970Z,19.00
2018-12-19T10:39:50.960Z,19.30
2018-12-19T10:40:50.950Z,18.70
2018-12-19T10:41:50.940Z,19.90
2018-12-19T10:42:50.929Z,19.80
2018-12-19T10:43:50.919Z,19.30
2018-12-19T10:44:50.911Z,19.50
2018-12-19T10:45:50.897Z,19.10
2018-12-19T10:46:50.890Z,19.30
2018-12-19T10:47:50.882Z,19.50
2018-12-19T10:48:50.870Z,19.60
2018-12-19T10:49:50.858Z,19.40
2018-12-19T10:50:52.331Z,19.50
2018-12-19T10:51:50.838Z,20.50
2018-12-19T10:52:50.832Z,18.50
2018-12-19T10:53:50.820Z,19.40
2018-12-19T10:54:50.809Z,19.70
2018-12-19T10:55:50.800Z,19.60
2018-12-19T10:56:50.792Z,19.70
2018-12-19T10:57:50.783Z,19.30
2018-12-19T10:58:50.775Z,19.70
2018-12-19T10:59:50.763Z,19.80
2018-12-19T11:00:50.753Z,19.00
2018-12-19T11:01:50.740Z,19.20
2018-12-19T11:02:50.731Z,19.30
2018-12-19T11:03:50.721Z,18.30
2018-12-19T11:04:50.710Z,19.00
2018-12-19T11:05:54.327Z,19.40
2018-12-19T11:06:50.695Z,18.30
2018-12-19T11:07:50.680Z,19.60
2018-12-19T11:08:50.671Z,19.40
2018-12-19T11:09:50.660Z,19.00
2018-12-19T11:10:50.651Z,19.40
2018-12-19T11:11:50.642Z,19.10
2018-12-19T11:12:50.629Z,19.10
2018-12-19T11:13:50.620Z,19.20
2018-12-19T11:14:50.612Z,19.70
2018-12-19T11:15:50.601Z,19.00
2018-12-19T11:16:50.590Z,19.10
2018-12-19T11:17:50.582Z,19.80
2018-12-19T11:18:50.571Z,18.10
2018-12-19T11:19:50.561Z,19.70
2018-12-19T11:20:50.552Z,18.90
2018-12-19T11:21:50.540Z,17.90
2018-12-19T11:22:50.534Z,19.00
2018-12-19T11:23:50.522Z,19.60
2018-12-19T11:24:50.513Z,19.40
2018-12-19T11:25:50.504Z,20.10
2018-12-19T11:26:50.493Z,19.10
2018-12-19T11:27:50.484Z,19.10
2018-12-19T11:28:50.472Z,18.90
2018-12-19T11:29:50.462Z,18.20
2018-12-19T11:30:50.454Z,19.10
2018-12-19T11:31:50.443Z,19.20
2018-12-19T11:32:50.433Z,19.60
2018-12-19T11:33:50.428Z,20.10
2018-12-19T11:34:50.415Z,19.30
2018-12-19T11:35:50.405Z,19.40
2018-12-19T11:36:50.394Z,19.00
2018-12-19T11:37:50.380Z,19.40
2018-12-19T11:38:50.375Z,19.60
2018-12-19T11:39:50.367Z,18.90
2018-12-19T11:40:50.355Z,19.60
2018-12-19T11:41:50.349Z,19.50
2018-12-19T11:42:50.335Z,19.30
2018-12-19T11:43:50.327Z,18.90
2018-12-19T11:44:50.318Z,19.40
2018-12-19T11:45:50.313Z,19.70
2018-12-19T11:46:50.297Z,19.90
2018-12-19T11:47:50.288Z,19.40
2018-12-19T11:48:50.279Z,20.10
2018-12-19T11:49:50.867Z,19.70
2018-12-19T11:50:50.260Z,19.40
2018-12-19T11:51:50.250Z,20.00
2018-12-19T11:52:50.240Z,20.00
2018-12-19T11:53:50.229Z,20.50
2018-12-19T11:54:50.216Z,20.80
2018-12-19T11:55:50.211Z,20.50
2018-12-19T11:56:50.201Z,19.10
2018-12-19T11:57:50.191Z,19.90
2018-12-19T11:58:50.180Z,19.50
2018-12-19T11:59:50.171Z,19.00
2018-12-19T12:00:50.159Z,18.70
2018-12-19T12:01:50.151Z,20.60
2018-12-19T12:02:50.141Z,19.50
2018-12-19T12:03:50.131Z,20.20
2018-12-19T12:04:50.125Z,19.30
2018-12-19T12:05:50.117Z,19.40
2018-12-19T12:06:50.102Z,19.50
2018-12-19T12:07:50.093Z,19.50
2018-12-19T12:08:50.082Z,19.30
2018-12-19T12:09:50.074Z,19.30
2018-12-19T12:10:50.070Z,19.00
2018-12-19T12:11:50.055Z,19.70
2018-12-19T12:12:50.044Z,20.10
2018-12-19T12:13:50.035Z,20.30
2018-12-19T12:14:50.020Z,20.30
2018-12-19T12:15:50.012Z,19.80
2018-12-19T12:16:50.004Z,19.60
2018-12-19T12:17:50.871Z,19.80
2018-12-19T12:18:49.985Z,19.40
2018-12-19T12:19:49.972Z,18.80
2018-12-19T12:20:49.965Z,20.50
2018-12-19T12:21:49.959Z,20.30
2018-12-19T12:22:49.947Z,20.50
2018-12-19T12:23:49.937Z,19.80
2018-12-19T12:24:49.925Z,19.50
2018-12-19T12:25:49.916Z,19.90
2018-12-19T12:26:49.906Z,19.70
2018-12-19T12:27:49.899Z,20.10
2018-12-19T12:28:49.887Z,19.90
2018-12-19T12:29:49.881Z,19.50
2018-12-19T12:30:49.867Z,19.30
2018-12-19T12:31:49.858Z,19.00
2018-12-19T12:32:49.847Z,19.00
2018-12-19T12:33:50.782Z,19.20
2018-12-19T12:34:49.829Z,19.00
2018-12-19T12:35:49.816Z,19.20
2018-12-19T12:36:49.811Z,19.10
2018-12-19T12:37:49.799Z,19.70
2018-12-19T12:38:49.802Z,19.50
2018-12-19T12:39:49.782Z,19.40
2018-12-19T12:40:49.771Z,19.60
2018-12-19T12:41:52.503Z,19.20
2018-12-19T12:42:49.750Z,19.30
2018-12-19T12:43:49.741Z,19.40
2018-12-19T12:44:49.735Z,19.40
2018-12-19T12:45:49.722Z,19.10
2018-12-19T12:46:49.713Z,18.70
2018-12-19T12:47:49.702Z,19.30
2018-12-19T12:48:49.692Z,19.60
2018-12-19T12:49:49.683Z,19.10
2018-12-19T12:50:49.674Z,19.00
2018-12-19T12:51:49.664Z,20.80
2018-12-19T12:52:49.656Z,19.50